sensor_id;sensor_type;location;lat;lon;timestamp;temperature;humidity
22006;DHT22;11167;46.988;15.470;2023-03-16T00:01:17;6.40;61.30
22006;DHT22;11167;46.988;15.470;2023-03-16T00:03:18;6.40;61.30
22006;DHT22;11167;46.988;15.470;2023-03-16T00:05:19;6.40;61.30
22006;DHT22;11167;46.988;15.470;2023-03-16T00:07:20;6.40;61.50
22006;DHT22;11167;46.988;15.470;2023-03-16T00:09:21;6.30;61.50
22006;DHT22;11167;46.988;15.470;2023-03-16T00:11:24;6.30;61.50
22006;DHT22;11167;46.988;15.470;2023-03-16T00:13:26;6.30;61.50
22006;DHT22;11167;46.988;15.470;2023-03-16T00:15:27;6.30;61.60
22006;DHT22;11167;46.988;15.470;2023-03-16T00:17:29;6.30;61.60
22006;DHT22;11167;46.988;15.470;2023-03-16T00:19:30;6.20;61.60
22006;DHT22;11167;46.988;15.470;2023-03-16T00:21:33;6.20;61.50
22006;DHT22;11167;46.988;15.470;2023-03-16T00:23:34;6.20;61.50
22006;DHT22;11167;46.988;15.470;2023-03-16T00:25:35;6.20;61.60
22006;DHT22;11167;46.988;15.470;2023-03-16T00:27:37;6.10;61.60
22006;DHT22;11167;46.988;15.470;2023-03-16T00:29:38;6.10;61.60
22006;DHT22;11167;46.988;15.470;2023-03-16T00:31:39;6.10;61.60
22006;DHT22;11167;46.988;15.470;2023-03-16T00:33:42;6.10;61.70
22006;DHT22;11167;46.988;15.470;2023-03-16T00:35:46;6.10;61.80
22006;DHT22;11167;46.988;15.470;2023-03-16T00:37:50;6.00;61.80
22006;DHT22;11167;46.988;15.470;2023-03-16T00:39:51;6.00;61.90
22006;DHT22;11167;46.988;15.470;2023-03-16T00:41:54;6.00;61.90
22006;DHT22;11167;46.988;15.470;2023-03-16T00:43:57;6.00;61.90
22006;DHT22;11167;46.988;15.470;2023-03-16T00:45:58;6.00;62.00
22006;DHT22;11167;46.988;15.470;2023-03-16T00:48:01;5.90;62.00
22006;DHT22;11167;46.988;15.470;2023-03-16T00:50:02;5.90;62.00
22006;DHT22;11167;46.988;15.470;2023-03-16T00:52:04;5.90;62.10
22006;DHT22;11167;46.988;15.470;2023-03-16T00:54:06;5.90;62.10
22006;DHT22;11167;46.988;15.470;2023-03-16T00:56:07;5.90;62.20
22006;DHT22;11167;46.988;15.470;2023-03-16T00:58:09;5.80;62.10
22006;DHT22;11167;46.988;15.470;2023-03-16T01:00:12;5.80;62.00
22006;DHT22;11167;46.988;15.470;2023-03-16T01:02:15;5.80;62.00
22006;DHT22;11167;46.988;15.470;2023-03-16T01:04:16;5.80;62.10
22006;DHT22;11167;46.988;15.470;2023-03-16T01:06:18;5.80;62.10
22006;DHT22;11167;46.988;15.470;2023-03-16T01:08:20;5.70;62.10
22006;DHT22;11167;46.988;15.470;2023-03-16T01:10:22;5.70;62.10
22006;DHT22;11167;46.988;15.470;2023-03-16T01:12:23;5.70;62.10
22006;DHT22;11167;46.988;15.470;2023-03-16T01:14:24;5.70;62.20
22006;DHT22;11167;46.988;15.470;2023-03-16T01:16:24;5.70;62.20
22006;DHT22;11167;46.988;15.470;2023-03-16T01:18:26;5.60;62.10
22006;DHT22;11167;46.988;15.470;2023-03-16T01:20:27;5.60;62.20
22006;DHT22;11167;46.988;15.470;2023-03-16T01:22:27;5.60;62.20
22006;DHT22;11167;46.988;15.470;2023-03-16T01:24:29;5.60;62.30
22006;DHT22;11167;46.988;15.470;2023-03-16T01:26:30;5.60;62.30
22006;DHT22;11167;46.988;15.470;2023-03-16T01:28:31;5.60;62.30
22006;DHT22;11167;46.988;15.470;2023-03-16T01:30:32;5.50;62.30
22006;DHT22;11167;46.988;15.470;2023-03-16T01:32:35;5.50;62.30
22006;DHT22;11167;46.988;15.470;2023-03-16T01:34:35;5.50;62.30
22006;DHT22;11167;46.988;15.470;2023-03-16T01:36:37;5.50;62.30
22006;DHT22;11167;46.988;15.470;2023-03-16T01:38:38;5.50;62.40
22006;DHT22;11167;46.988;15.470;2023-03-16T01:40:40;5.40;62.30
22006;DHT22;11167;46.988;15.470;2023-03-16T01:42:45;5.40;62.40
22006;DHT22;11167;46.988;15.470;2023-03-16T01:46:52;5.40;62.50
22006;DHT22;11167;46.988;15.470;2023-03-16T01:53:10;5.30;62.50
22006;DHT22;11167;46.988;15.470;2023-03-16T01:55:12;5.30;62.50
22006;DHT22;11167;46.988;15.470;2023-03-16T01:57:23;5.30;62.50
22006;DHT22;11167;46.988;15.470;2023-03-16T01:59:27;5.30;62.50
22006;DHT22;11167;46.988;15.470;2023-03-16T02:01:27;5.30;62.70
22006;DHT22;11167;46.988;15.470;2023-03-16T02:03:28;5.20;62.70
22006;DHT22;11167;46.988;15.470;2023-03-16T02:05:42;5.20;63.50
22006;DHT22;11167;46.988;15.470;2023-03-16T02:07:39;5.20;62.80
22006;DHT22;11167;46.988;15.470;2023-03-16T02:09:39;5.20;62.80
22006;DHT22;11167;46.988;15.470;2023-03-16T02:11:42;5.20;62.90
22006;DHT22;11167;46.988;15.470;2023-03-16T02:13:46;5.20;62.90
22006;DHT22;11167;46.988;15.470;2023-03-16T02:15:48;5.20;62.90
22006;DHT22;11167;46.988;15.470;2023-03-16T02:17:50;5.20;63.00
22006;DHT22;11167;46.988;15.470;2023-03-16T02:22:13;5.10;63.00
22006;DHT22;11167;46.988;15.470;2023-03-16T02:24:14;5.10;63.20
22006;DHT22;11167;46.988;15.470;2023-03-16T02:30:38;5.10;63.20
22006;DHT22;11167;46.988;15.470;2023-03-16T02:32:39;5.10;63.30
22006;DHT22;11167;46.988;15.470;2023-03-16T02:34:40;5.00;63.30
22006;DHT22;11167;46.988;15.470;2023-03-16T02:36:43;5.00;63.40
22006;DHT22;11167;46.988;15.470;2023-03-16T02:38:45;5.00;63.50
22006;DHT22;11167;46.988;15.470;2023-03-16T02:40:51;5.00;63.60
22006;DHT22;11167;46.988;15.470;2023-03-16T02:42:55;5.00;63.60
22006;DHT22;11167;46.988;15.470;2023-03-16T02:44:58;5.00;63.70
22006;DHT22;11167;46.988;15.470;2023-03-16T02:47:01;5.00;63.70
22006;DHT22;11167;46.988;15.470;2023-03-16T02:49:05;5.00;63.70
22006;DHT22;11167;46.988;15.470;2023-03-16T02:51:05;4.90;63.70
22006;DHT22;11167;46.988;15.470;2023-03-16T02:53:06;4.90;63.70
22006;DHT22;11167;46.988;15.470;2023-03-16T02:55:08;4.90;63.70
22006;DHT22;11167;46.988;15.470;2023-03-16T02:57:09;4.90;63.80
22006;DHT22;11167;46.988;15.470;2023-03-16T02:59:10;4.90;63.80
22006;DHT22;11167;46.988;15.470;2023-03-16T03:01:11;4.90;63.90
22006;DHT22;11167;46.988;15.470;2023-03-16T03:03:12;4.90;63.90
22006;DHT22;11167;46.988;15.470;2023-03-16T03:05:13;4.90;63.90
22006;DHT22;11167;46.988;15.470;2023-03-16T03:07:14;4.90;64.00
22006;DHT22;11167;46.988;15.470;2023-03-16T03:09:15;4.80;63.90
22006;DHT22;11167;46.988;15.470;2023-03-16T03:11:17;4.80;64.10
22006;DHT22;11167;46.988;15.470;2023-03-16T03:13:19;4.80;64.10
22006;DHT22;11167;46.988;15.470;2023-03-16T03:15:20;4.80;64.20
22006;DHT22;11167;46.988;15.470;2023-03-16T03:17:21;4.80;64.20
22006;DHT22;11167;46.988;15.470;2023-03-16T03:19:24;4.80;64.20
22006;DHT22;11167;46.988;15.470;2023-03-16T03:21:25;4.80;64.30
22006;DHT22;11167;46.988;15.470;2023-03-16T03:23:26;4.80;64.30
22006;DHT22;11167;46.988;15.470;2023-03-16T03:25:27;4.80;64.30
22006;DHT22;11167;46.988;15.470;2023-03-16T03:27:28;4.80;64.40
22006;DHT22;11167;46.988;15.470;2023-03-16T03:29:31;4.70;64.30
22006;DHT22;11167;46.988;15.470;2023-03-16T03:31:33;4.70;64.40
22006;DHT22;11167;46.988;15.470;2023-03-16T03:33:34;4.70;64.40
22006;DHT22;11167;46.988;15.470;2023-03-16T03:35:35;4.70;64.40
22006;DHT22;11167;46.988;15.470;2023-03-16T03:37:36;4.70;64.50
22006;DHT22;11167;46.988;15.470;2023-03-16T03:39:37;4.70;64.50
22006;DHT22;11167;46.988;15.470;2023-03-16T03:41:39;4.70;64.50
22006;DHT22;11167;46.988;15.470;2023-03-16T03:43:40;4.70;64.50
22006;DHT22;11167;46.988;15.470;2023-03-16T03:45:41;4.70;64.50
22006;DHT22;11167;46.988;15.470;2023-03-16T03:47:42;4.60;64.50
22006;DHT22;11167;46.988;15.470;2023-03-16T03:49:43;4.60;64.50
22006;DHT22;11167;46.988;15.470;2023-03-16T03:51:44;4.60;64.50
22006;DHT22;11167;46.988;15.470;2023-03-16T03:53:46;4.60;64.50
22006;DHT22;11167;46.988;15.470;2023-03-16T03:55:47;4.60;64.60
22006;DHT22;11167;46.988;15.470;2023-03-16T03:57:49;4.60;64.50
22006;DHT22;11167;46.988;15.470;2023-03-16T03:59:50;4.60;64.70
22006;DHT22;11167;46.988;15.470;2023-03-16T04:01:51;4.60;65.40
22006;DHT22;11167;46.988;15.470;2023-03-16T04:03:53;4.50;64.60
22006;DHT22;11167;46.988;15.470;2023-03-16T04:05:54;4.50;64.70
22006;DHT22;11167;46.988;15.470;2023-03-16T04:07:55;4.50;64.70
22006;DHT22;11167;46.988;15.470;2023-03-16T04:09:58;4.50;64.80
22006;DHT22;11167;46.988;15.470;2023-03-16T04:11:59;4.50;64.70
22006;DHT22;11167;46.988;15.470;2023-03-16T04:14:00;4.50;64.80
22006;DHT22;11167;46.988;15.470;2023-03-16T04:16:01;4.50;64.80
22006;DHT22;11167;46.988;15.470;2023-03-16T04:18:02;4.50;64.90
22006;DHT22;11167;46.988;15.470;2023-03-16T04:20:03;4.50;64.90
22006;DHT22;11167;46.988;15.470;2023-03-16T04:22:09;4.50;64.90
22006;DHT22;11167;46.988;15.470;2023-03-16T04:24:10;4.40;64.90
22006;DHT22;11167;46.988;15.470;2023-03-16T04:26:12;4.40;64.90
22006;DHT22;11167;46.988;15.470;2023-03-16T04:28:13;4.40;65.00
22006;DHT22;11167;46.988;15.470;2023-03-16T04:30:16;4.40;65.00
22006;DHT22;11167;46.988;15.470;2023-03-16T04:32:17;4.40;65.00
22006;DHT22;11167;46.988;15.470;2023-03-16T04:34:18;4.40;65.10
22006;DHT22;11167;46.988;15.470;2023-03-16T04:36:19;4.40;65.20
22006;DHT22;11167;46.988;15.470;2023-03-16T04:38:24;4.40;65.20
22006;DHT22;11167;46.988;15.470;2023-03-16T04:40:25;4.30;65.10
22006;DHT22;11167;46.988;15.470;2023-03-16T04:42:26;4.30;65.20
22006;DHT22;11167;46.988;15.470;2023-03-16T04:44:28;4.30;65.30
22006;DHT22;11167;46.988;15.470;2023-03-16T04:46:29;4.30;65.30
22006;DHT22;11167;46.988;15.470;2023-03-16T04:48:30;4.30;66.20
22006;DHT22;11167;46.988;15.470;2023-03-16T04:50:31;4.30;65.40
22006;DHT22;11167;46.988;15.470;2023-03-16T04:52:32;4.30;65.50
22006;DHT22;11167;46.988;15.470;2023-03-16T04:54:33;4.30;65.70
22006;DHT22;11167;46.988;15.470;2023-03-16T04:56:34;4.20;65.70
22006;DHT22;11167;46.988;15.470;2023-03-16T04:58:35;4.20;65.80
22006;DHT22;11167;46.988;15.470;2023-03-16T05:00:36;4.20;65.90
22006;DHT22;11167;46.988;15.470;2023-03-16T05:02:37;4.20;65.90
22006;DHT22;11167;46.988;15.470;2023-03-16T05:04:38;4.20;65.90
22006;DHT22;11167;46.988;15.470;2023-03-16T05:06:39;4.20;65.90
22006;DHT22;11167;46.988;15.470;2023-03-16T05:08:40;4.20;65.90
22006;DHT22;11167;46.988;15.470;2023-03-16T05:10:42;4.20;65.90
22006;DHT22;11167;46.988;15.470;2023-03-16T05:12:44;4.10;65.90
22006;DHT22;11167;46.988;15.470;2023-03-16T05:14:45;4.20;65.90
22006;DHT22;11167;46.988;15.470;2023-03-16T05:16:46;4.10;65.90
22006;DHT22;11167;46.988;15.470;2023-03-16T05:18:47;4.10;65.90
22006;DHT22;11167;46.988;15.470;2023-03-16T05:20:48;4.10;65.90
22006;DHT22;11167;46.988;15.470;2023-03-16T05:22:50;4.10;65.90
22006;DHT22;11167;46.988;15.470;2023-03-16T05:24:51;4.10;65.90
22006;DHT22;11167;46.988;15.470;2023-03-16T05:26:52;4.10;65.90
22006;DHT22;11167;46.988;15.470;2023-03-16T05:28:53;4.00;65.90
22006;DHT22;11167;46.988;15.470;2023-03-16T05:30:54;4.00;65.90
22006;DHT22;11167;46.988;15.470;2023-03-16T05:32:55;4.00;65.90
22006;DHT22;11167;46.988;15.470;2023-03-16T05:34:57;4.00;65.90
22006;DHT22;11167;46.988;15.470;2023-03-16T05:36:58;4.00;65.90
22006;DHT22;11167;46.988;15.470;2023-03-16T05:38:59;4.00;65.90
22006;DHT22;11167;46.988;15.470;2023-03-16T05:41:00;4.00;65.90
22006;DHT22;11167;46.988;15.470;2023-03-16T05:43:02;4.00;65.80
22006;DHT22;11167;46.988;15.470;2023-03-16T05:45:04;4.00;65.90
22006;DHT22;11167;46.988;15.470;2023-03-16T05:47:05;3.90;65.80
22006;DHT22;11167;46.988;15.470;2023-03-16T05:49:06;3.90;65.90
22006;DHT22;11167;46.988;15.470;2023-03-16T05:51:07;3.90;65.90
22006;DHT22;11167;46.988;15.470;2023-03-16T05:53:08;3.90;65.90
22006;DHT22;11167;46.988;15.470;2023-03-16T05:55:10;3.90;65.80
22006;DHT22;11167;46.988;15.470;2023-03-16T05:57:11;3.90;65.80
22006;DHT22;11167;46.988;15.470;2023-03-16T05:59:12;3.90;65.90
22006;DHT22;11167;46.988;15.470;2023-03-16T06:01:13;3.80;65.70
22006;DHT22;11167;46.988;15.470;2023-03-16T06:03:15;3.80;65.70
22006;DHT22;11167;46.988;15.470;2023-03-16T06:05:17;3.80;65.80
22006;DHT22;11167;46.988;15.470;2023-03-16T06:07:18;3.80;65.70
22006;DHT22;11167;46.988;15.470;2023-03-16T06:09:19;3.80;65.70
22006;DHT22;11167;46.988;15.470;2023-03-16T06:11:20;3.80;66.50
22006;DHT22;11167;46.988;15.470;2023-03-16T06:13:21;3.80;65.70
22006;DHT22;11167;46.988;15.470;2023-03-16T06:15:23;3.80;65.70
22006;DHT22;11167;46.988;15.470;2023-03-16T06:17:25;3.80;65.70
22006;DHT22;11167;46.988;15.470;2023-03-16T06:19:26;3.80;65.70
22006;DHT22;11167;46.988;15.470;2023-03-16T06:21:27;3.80;65.60
22006;DHT22;11167;46.988;15.470;2023-03-16T06:23:28;3.80;65.60
22006;DHT22;11167;46.988;15.470;2023-03-16T06:25:30;3.70;65.50
22006;DHT22;11167;46.988;15.470;2023-03-16T06:27:31;3.70;65.50
22006;DHT22;11167;46.988;15.470;2023-03-16T06:29:32;3.70;66.30
22006;DHT22;11167;46.988;15.470;2023-03-16T06:31:33;3.70;65.40
22006;DHT22;11167;46.988;15.470;2023-03-16T06:33:34;3.70;65.40
22006;DHT22;11167;46.988;15.470;2023-03-16T06:35:35;3.70;65.30
22006;DHT22;11167;46.988;15.470;2023-03-16T06:37:36;3.70;65.30
22006;DHT22;11167;46.988;15.470;2023-03-16T06:39:37;3.70;65.30
22006;DHT22;11167;46.988;15.470;2023-03-16T06:41:38;3.70;65.30
22006;DHT22;11167;46.988;15.470;2023-03-16T06:43:39;3.70;65.30
22006;DHT22;11167;46.988;15.470;2023-03-16T06:45:41;3.70;65.30
22006;DHT22;11167;46.988;15.470;2023-03-16T06:47:42;3.70;65.20
22006;DHT22;11167;46.988;15.470;2023-03-16T06:49:43;3.70;65.30
22006;DHT22;11167;46.988;15.470;2023-03-16T06:51:46;3.70;65.30
22006;DHT22;11167;46.988;15.470;2023-03-16T06:53:47;3.60;65.10
22006;DHT22;11167;46.988;15.470;2023-03-16T06:55:48;3.70;65.20
22006;DHT22;11167;46.988;15.470;2023-03-16T06:57:49;3.70;65.10
22006;DHT22;11167;46.988;15.470;2023-03-16T06:59:50;3.70;65.10
22006;DHT22;11167;46.988;15.470;2023-03-16T07:01:51;3.70;65.00
22006;DHT22;11167;46.988;15.470;2023-03-16T07:03:52;3.60;65.00
22006;DHT22;11167;46.988;15.470;2023-03-16T07:05:54;3.70;65.00
22006;DHT22;11167;46.988;15.470;2023-03-16T07:07:54;3.70;65.00
22006;DHT22;11167;46.988;15.470;2023-03-16T07:09:55;3.70;64.90
22006;DHT22;11167;46.988;15.470;2023-03-16T07:11:56;3.70;64.90
22006;DHT22;11167;46.988;15.470;2023-03-16T07:13:57;3.70;64.90
22006;DHT22;11167;46.988;15.470;2023-03-16T07:16:01;3.70;64.80
22006;DHT22;11167;46.988;15.470;2023-03-16T07:18:02;3.70;64.80
22006;DHT22;11167;46.988;15.470;2023-03-16T07:20:03;3.70;64.80
22006;DHT22;11167;46.988;15.470;2023-03-16T07:22:07;3.70;64.80
22006;DHT22;11167;46.988;15.470;2023-03-16T07:24:09;3.70;64.80
22006;DHT22;11167;46.988;15.470;2023-03-16T07:26:10;3.70;64.80
22006;DHT22;11167;46.988;15.470;2023-03-16T07:28:11;3.70;64.70
22006;DHT22;11167;46.988;15.470;2023-03-16T07:30:12;3.70;64.60
22006;DHT22;11167;46.988;15.470;2023-03-16T07:32:13;3.70;64.60
22006;DHT22;11167;46.988;15.470;2023-03-16T07:34:14;3.70;64.60
22006;DHT22;11167;46.988;15.470;2023-03-16T07:36:16;3.70;64.50
22006;DHT22;11167;46.988;15.470;2023-03-16T07:38:17;3.80;64.60
22006;DHT22;11167;46.988;15.470;2023-03-16T07:40:17;3.80;64.60
22006;DHT22;11167;46.988;15.470;2023-03-16T07:42:18;3.80;64.50
22006;DHT22;11167;46.988;15.470;2023-03-16T07:44:19;3.80;64.40
22006;DHT22;11167;46.988;15.470;2023-03-16T07:46:21;3.80;64.40
22006;DHT22;11167;46.988;15.470;2023-03-16T07:48:22;3.80;64.40
22006;DHT22;11167;46.988;15.470;2023-03-16T07:50:22;3.80;64.40
22006;DHT22;11167;46.988;15.470;2023-03-16T07:52:23;3.80;64.40
22006;DHT22;11167;46.988;15.470;2023-03-16T07:54:24;3.90;64.40
22006;DHT22;11167;46.988;15.470;2023-03-16T07:56:25;3.80;64.30
22006;DHT22;11167;46.988;15.470;2023-03-16T07:58:26;3.90;64.30
22006;DHT22;11167;46.988;15.470;2023-03-16T08:00:27;3.90;64.30
22006;DHT22;11167;46.988;15.470;2023-03-16T08:02:28;3.90;64.30
22006;DHT22;11167;46.988;15.470;2023-03-16T08:04:29;3.90;64.20
22006;DHT22;11167;46.988;15.470;2023-03-16T08:06:30;3.90;64.20
22006;DHT22;11167;46.988;15.470;2023-03-16T08:08:31;4.00;64.30
22006;DHT22;11167;46.988;15.470;2023-03-16T08:10:32;4.00;64.30
22006;DHT22;11167;46.988;15.470;2023-03-16T08:12:33;4.00;64.30
22006;DHT22;11167;46.988;15.470;2023-03-16T08:14:34;4.00;64.40
22006;DHT22;11167;46.988;15.470;2023-03-16T08:16:36;4.00;64.30
22006;DHT22;11167;46.988;15.470;2023-03-16T08:18:37;4.10;64.40
22006;DHT22;11167;46.988;15.470;2023-03-16T08:20:37;4.10;64.40
22006;DHT22;11167;46.988;15.470;2023-03-16T08:22:40;4.10;64.50
22006;DHT22;11167;46.988;15.470;2023-03-16T08:24:41;4.10;64.40
22006;DHT22;11167;46.988;15.470;2023-03-16T08:26:42;4.10;64.50
22006;DHT22;11167;46.988;15.470;2023-03-16T08:28:43;4.20;64.60
22006;DHT22;11167;46.988;15.470;2023-03-16T08:30:48;4.20;64.60
22006;DHT22;11167;46.988;15.470;2023-03-16T08:32:50;4.20;64.60
22006;DHT22;11167;46.988;15.470;2023-03-16T08:34:51;4.20;64.70
22006;DHT22;11167;46.988;15.470;2023-03-16T08:36:53;4.30;64.70
22006;DHT22;11167;46.988;15.470;2023-03-16T08:38:55;4.30;64.70
22006;DHT22;11167;46.988;15.470;2023-03-16T08:40:56;4.30;64.80
22006;DHT22;11167;46.988;15.470;2023-03-16T08:42:57;4.30;64.60
22006;DHT22;11167;46.988;15.470;2023-03-16T08:44:58;4.40;64.70
22006;DHT22;11167;46.988;15.470;2023-03-16T08:47:00;4.40;64.70
22006;DHT22;11167;46.988;15.470;2023-03-16T08:49:01;4.40;64.60
22006;DHT22;11167;46.988;15.470;2023-03-16T08:51:02;4.40;64.60
22006;DHT22;11167;46.988;15.470;2023-03-16T08:53:03;4.50;64.60
22006;DHT22;11167;46.988;15.470;2023-03-16T08:55:04;4.50;65.30
22006;DHT22;11167;46.988;15.470;2023-03-16T08:57:06;4.50;64.30
22006;DHT22;11167;46.988;15.470;2023-03-16T08:59:08;4.50;64.30
22006;DHT22;11167;46.988;15.470;2023-03-16T09:01:10;4.60;64.30
22006;DHT22;11167;46.988;15.470;2023-03-16T09:03:11;4.60;64.30
22006;DHT22;11167;46.988;15.470;2023-03-16T09:05:13;4.60;64.30
22006;DHT22;11167;46.988;15.470;2023-03-16T09:07:14;4.70;64.30
22006;DHT22;11167;46.988;15.470;2023-03-16T09:09:15;4.70;64.30
22006;DHT22;11167;46.988;15.470;2023-03-16T09:11:17;4.70;64.20
22006;DHT22;11167;46.988;15.470;2023-03-16T09:13:18;4.80;64.20
22006;DHT22;11167;46.988;15.470;2023-03-16T09:15:19;4.80;64.20
22006;DHT22;11167;46.988;15.470;2023-03-16T09:17:20;4.80;64.10
22006;DHT22;11167;46.988;15.470;2023-03-16T09:19:21;4.80;64.10
22006;DHT22;11167;46.988;15.470;2023-03-16T09:21:22;4.90;64.20
22006;DHT22;11167;46.988;15.470;2023-03-16T09:23:23;4.90;64.10
22006;DHT22;11167;46.988;15.470;2023-03-16T09:25:25;5.00;64.20
22006;DHT22;11167;46.988;15.470;2023-03-16T09:27:26;5.00;64.20
22006;DHT22;11167;46.988;15.470;2023-03-16T09:29:27;5.00;64.10
22006;DHT22;11167;46.988;15.470;2023-03-16T09:31:28;5.10;64.20
22006;DHT22;11167;46.988;15.470;2023-03-16T09:33:30;5.10;64.10
22006;DHT22;11167;46.988;15.470;2023-03-16T09:35:34;5.20;64.30
22006;DHT22;11167;46.988;15.470;2023-03-16T09:37:36;5.20;64.20
22006;DHT22;11167;46.988;15.470;2023-03-16T09:39:37;5.20;64.10
22006;DHT22;11167;46.988;15.470;2023-03-16T09:41:46;5.30;64.10
22006;DHT22;11167;46.988;15.470;2023-03-16T09:43:50;5.30;64.00
22006;DHT22;11167;46.988;15.470;2023-03-16T09:45:54;5.40;64.10
22006;DHT22;11167;46.988;15.470;2023-03-16T09:47:55;5.40;64.00
22006;DHT22;11167;46.988;15.470;2023-03-16T09:49:58;5.40;64.00
22006;DHT22;11167;46.988;15.470;2023-03-16T09:54:26;5.50;64.00
22006;DHT22;11167;46.988;15.470;2023-03-16T09:56:25;5.60;64.00
22006;DHT22;11167;46.988;15.470;2023-03-16T09:58:20;5.60;64.00
22006;DHT22;11167;46.988;15.470;2023-03-16T10:00:23;5.70;64.00
22006;DHT22;11167;46.988;15.470;2023-03-16T10:02:37;5.70;64.00
22006;DHT22;11167;46.988;15.470;2023-03-16T10:07:46;5.80;64.00
22006;DHT22;11167;46.988;15.470;2023-03-16T10:09:04;5.90;64.00
22006;DHT22;11167;46.988;15.470;2023-03-16T10:11:08;5.90;63.90
22006;DHT22;11167;46.988;15.470;2023-03-16T10:13:13;6.00;63.90
22006;DHT22;11167;46.988;15.470;2023-03-16T10:15:14;6.00;63.80
22006;DHT22;11167;46.988;15.470;2023-03-16T10:17:17;6.00;63.70
22006;DHT22;11167;46.988;15.470;2023-03-16T10:19:20;6.10;63.70
22006;DHT22;11167;46.988;15.470;2023-03-16T10:21:22;6.10;63.70
22006;DHT22;11167;46.988;15.470;2023-03-16T10:23:24;6.20;63.60
22006;DHT22;11167;46.988;15.470;2023-03-16T10:27:41;6.30;63.50
22006;DHT22;11167;46.988;15.470;2023-03-16T10:29:42;6.30;63.30
22006;DHT22;11167;46.988;15.470;2023-03-16T10:31:43;6.40;63.40
22006;DHT22;11167;46.988;15.470;2023-03-16T10:33:45;6.40;63.30
22006;DHT22;11167;46.988;15.470;2023-03-16T10:35:47;6.50;63.20
22006;DHT22;11167;46.988;15.470;2023-03-16T10:37:49;6.50;63.20
22006;DHT22;11167;46.988;15.470;2023-03-16T10:39:52;6.60;63.20
22006;DHT22;11167;46.988;15.470;2023-03-16T10:41:55;6.60;63.20
22006;DHT22;11167;46.988;15.470;2023-03-16T10:43:58;6.70;63.10
22006;DHT22;11167;46.988;15.470;2023-03-16T10:46:00;6.70;63.00
22006;DHT22;11167;46.988;15.470;2023-03-16T10:48:18;6.80;63.00
22006;DHT22;11167;46.988;15.470;2023-03-16T10:50:24;6.80;63.00
22006;DHT22;11167;46.988;15.470;2023-03-16T10:54:37;6.90;62.80
22006;DHT22;11167;46.988;15.470;2023-03-16T10:56:40;7.00;62.80
22006;DHT22;11167;46.988;15.470;2023-03-16T10:58:42;7.10;62.70
22006;DHT22;11167;46.988;15.470;2023-03-16T11:00:43;7.10;62.80
22006;DHT22;11167;46.988;15.470;2023-03-16T11:02:46;7.20;63.80
22006;DHT22;11167;46.988;15.470;2023-03-16T11:04:48;7.20;62.90
22006;DHT22;11167;46.988;15.470;2023-03-16T11:06:57;7.30;63.00
22006;DHT22;11167;46.988;15.470;2023-03-16T11:09:02;7.30;62.90
22006;DHT22;11167;46.988;15.470;2023-03-16T11:11:09;7.40;62.90
22006;DHT22;11167;46.988;15.470;2023-03-16T11:13:12;7.50;62.90
22006;DHT22;11167;46.988;15.470;2023-03-16T11:15:14;7.50;62.90
22006;DHT22;11167;46.988;15.470;2023-03-16T11:17:18;7.60;62.90
22006;DHT22;11167;46.988;15.470;2023-03-16T11:19:22;7.60;62.90
22006;DHT22;11167;46.988;15.470;2023-03-16T11:23:32;7.70;62.80
22006;DHT22;11167;46.988;15.470;2023-03-16T11:25:38;7.80;62.70
22006;DHT22;11167;46.988;15.470;2023-03-16T11:27:55;7.90;62.80
22006;DHT22;11167;46.988;15.470;2023-03-16T11:30:04;7.90;62.80
22006;DHT22;11167;46.988;15.470;2023-03-16T11:31:59;8.00;62.70
22006;DHT22;11167;46.988;15.470;2023-03-16T11:34:01;8.00;62.60
22006;DHT22;11167;46.988;15.470;2023-03-16T11:38:15;8.20;62.40
22006;DHT22;11167;46.988;15.470;2023-03-16T11:40:37;8.20;62.40
22006;DHT22;11167;46.988;15.470;2023-03-16T11:42:36;8.30;62.60
22006;DHT22;11167;46.988;15.470;2023-03-16T11:46:52;8.40;62.50
22006;DHT22;11167;46.988;15.470;2023-03-16T11:51:14;8.60;62.60
22006;DHT22;11167;46.988;15.470;2023-03-16T11:53:25;8.70;62.50
22006;DHT22;11167;46.988;15.470;2023-03-16T11:59:58;8.80;62.00
22006;DHT22;11167;46.988;15.470;2023-03-16T12:01:59;8.90;62.20
22006;DHT22;11167;46.988;15.470;2023-03-16T12:06:16;9.00;62.20
22006;DHT22;11167;46.988;15.470;2023-03-16T12:10:33;9.10;62.10
22006;DHT22;11167;46.988;15.470;2023-03-16T12:14:49;9.30;62.10
22006;DHT22;11167;46.988;15.470;2023-03-16T12:17:02;9.30;62.00
22006;DHT22;11167;46.988;15.470;2023-03-16T12:19:02;9.40;62.00
22006;DHT22;11167;46.988;15.470;2023-03-16T12:21:16;9.40;62.00
22006;DHT22;11167;46.988;15.470;2023-03-16T12:23:20;9.50;62.00
22006;DHT22;11167;46.988;15.470;2023-03-16T12:25:28;9.60;62.00
22006;DHT22;11167;46.988;15.470;2023-03-16T12:27:30;9.60;62.10
22006;DHT22;11167;46.988;15.470;2023-03-16T12:29:33;9.70;62.20
22006;DHT22;11167;46.988;15.470;2023-03-16T12:36:09;10.00;62.50
22006;DHT22;11167;46.988;15.470;2023-03-16T12:38:21;10.00;62.50
22006;DHT22;11167;46.988;15.470;2023-03-16T12:42:39;10.20;62.50
22006;DHT22;11167;46.988;15.470;2023-03-16T12:48:56;10.40;62.40
22006;DHT22;11167;46.988;15.470;2023-03-16T12:50:59;10.50;62.50
22006;DHT22;11167;46.988;15.470;2023-03-16T12:53:01;10.60;62.50
22006;DHT22;11167;46.988;15.470;2023-03-16T12:55:14;10.60;62.50
22006;DHT22;11167;46.988;15.470;2023-03-16T12:57:15;10.70;62.50
22006;DHT22;11167;46.988;15.470;2023-03-16T12:59:17;10.80;62.50
22006;DHT22;11167;46.988;15.470;2023-03-16T13:01:19;10.90;62.50
22006;DHT22;11167;46.988;15.470;2023-03-16T13:03:22;11.00;62.50
22006;DHT22;11167;46.988;15.470;2023-03-16T13:05:29;11.00;62.50
22006;DHT22;11167;46.988;15.470;2023-03-16T13:07:32;11.10;62.40
22006;DHT22;11167;46.988;15.470;2023-03-16T13:09:34;11.20;62.50
22006;DHT22;11167;46.988;15.470;2023-03-16T13:11:43;11.20;62.50
22006;DHT22;11167;46.988;15.470;2023-03-16T13:13:47;11.30;62.50
22006;DHT22;11167;46.988;15.470;2023-03-16T13:15:49;11.40;62.50
22006;DHT22;11167;46.988;15.470;2023-03-16T13:18:04;11.50;62.60
22006;DHT22;11167;46.988;15.470;2023-03-16T13:22:18;11.70;62.60
22006;DHT22;11167;46.988;15.470;2023-03-16T13:24:27;11.80;62.60
22006;DHT22;11167;46.988;15.470;2023-03-16T13:26:39;11.80;62.50
22006;DHT22;11167;46.988;15.470;2023-03-16T13:28:41;11.90;62.40
22006;DHT22;11167;46.988;15.470;2023-03-16T13:30:48;12.00;62.50
22006;DHT22;11167;46.988;15.470;2023-03-16T13:32:55;12.10;62.60
22006;DHT22;11167;46.988;15.470;2023-03-16T13:34:58;12.10;62.60
22006;DHT22;11167;46.988;15.470;2023-03-16T13:36:59;12.20;62.70
22006;DHT22;11167;46.988;15.470;2023-03-16T13:39:17;12.30;62.90
22006;DHT22;11167;46.988;15.470;2023-03-16T13:41:18;12.40;62.70
22006;DHT22;11167;46.988;15.470;2023-03-16T13:43:21;12.40;62.60
22006;DHT22;11167;46.988;15.470;2023-03-16T13:45:26;12.50;62.70
22006;DHT22;11167;46.988;15.470;2023-03-16T13:47:25;12.60;62.70